Time;durP1;ratioP1;P1;durP2;ratioP2;P2;SDS_P1;SDS_P2;PMS_P1;PMS_P2;Temp;Humidity;BMP_temperature;BMP_pressure;BME280_temperature;BME280_humidity;BME280_pressure;Samples;Min_cycle;Max_cycle;Signal;HPM_P1;HPM_P2
2021/05/07 00:00:34;;;;;;;4.25;2.03;;;;;;;;;;5076092;28;20040;-76
2021/05/07 00:03:00;;;;;;;5.65;1.98;;;;;;;;;;5093854;28;20024;-75
2021/05/07 00:05:26;;;;;;;3.47;2.30;;;;;;;;;;5093880;28;20024;-76
2021/05/07 00:07:52;;;;;;;4.07;2.35;;;;;;;;;;5089159;28;20434;-75
2021/05/07 00:10:18;;;;;;;3.22;1.85;;;;;;;;;;5072012;28;20039;-75
2021/05/07 00:12:45;;;;;;;2.20;2.00;;;;;;;;;;5076781;28;20098;-75
2021/05/07 00:15:11;;;;;;;3.80;1.95;;;;;;;;;;5073208;28;20403;-75
2021/05/07 00:17:37;;;;;;;3.75;2.15;;;;;;;;;;5087061;28;20032;-74
2021/05/07 00:20:04;;;;;;;6.47;1.97;;;;;;;;;;5072789;28;20033;-75
2021/05/07 00:22:30;;;;;;;4.55;2.00;;;;;;;;;;5077929;28;20023;-75
2021/05/07 00:24:56;;;;;;;3.97;1.83;;;;;;;;;;5092674;28;20024;-75
2021/05/07 00:27:22;;;;;;;3.67;2.10;;;;;;;;;;5078713;28;20066;-74
2021/05/07 00:29:48;;;;;;;1.98;1.77;;;;;;;;;;5090953;28;20067;-75
2021/05/07 00:32:14;;;;;;;2.70;2.05;;;;;;;;;;5089768;28;20062;-75
2021/05/07 00:34:40;;;;;;;4.23;1.90;;;;;;;;;;5092963;28;20077;-75
2021/05/07 00:37:06;;;;;;;15.13;2.33;;;;;;;;;;5078266;28;20498;-75
2021/05/07 00:39:32;;;;;;;3.50;2.08;;;;;;;;;;5078329;28;20131;-74
2021/05/07 00:42:03;;;;;;;3.38;1.60;;;;;;;;;;5072850;28;20059;-75
2021/05/07 00:44:32;;;;;;;3.13;2.00;;;;;;;;;;5093028;28;20070;-75
2021/05/07 00:47:04;;;;;;;4.43;1.98;;;;;;;;;;5091690;28;20032;-74
2021/05/07 00:49:31;;;;;;;6.88;2.10;;;;;;;;;;5092124;28;20486;-74
2021/05/07 00:51:57;;;;;;;9.10;2.03;;;;;;;;;;5090848;28;20888;-76
2021/05/07 00:54:23;;;;;;;4.63;1.77;;;;;;;;;;5072378;28;20036;-75
2021/05/07 00:56:49;;;;;;;3.95;1.90;;;;;;;;;;5070735;28;20043;-74
2021/05/07 00:59:15;;;;;;;6.20;1.85;;;;;;;;;;5089533;28;20047;-74
2021/05/07 01:01:41;;;;;;;3.08;2.00;;;;;;;;;;5072075;28;20380;-73
2021/05/07 01:04:06;;;;;;;4.13;2.05;;;;;;;;;;5090229;28;20028;-74
2021/05/07 01:06:32;;;;;;;2.75;1.92;;;;;;;;;;5075391;28;20036;-74
2021/05/07 01:08:59;;;;;;;3.60;1.75;;;;;;;;;;5077469;28;20032;-75
2021/05/07 01:11:25;;;;;;;4.67;1.90;;;;;;;;;;5083820;28;20036;-74
2021/05/07 01:13:51;;;;;;;2.90;1.90;;;;;;;;;;5072272;28;20031;-75
2021/05/07 01:16:17;;;;;;;3.38;1.88;;;;;;;;;;5072206;28;20028;-75
2021/05/07 01:18:43;;;;;;;2.10;1.70;;;;;;;;;;5072383;28;20418;-75
2021/05/07 01:21:08;;;;;;;5.43;1.80;;;;;;;;;;5070244;28;20044;-75
2021/05/07 01:23:34;;;;;;;2.65;1.98;;;;;;;;;;5072364;28;20024;-74
2021/05/07 01:26:00;;;;;;;3.75;1.83;;;;;;;;;;5071818;28;20050;-74
2021/05/07 01:28:28;;;;;;;2.30;1.75;;;;;;;;;;5085886;28;20035;-74
2021/05/07 01:30:54;;;;;;;3.78;2.20;;;;;;;;;;5092132;28;20042;-74
2021/05/07 01:33:21;;;;;;;2.75;1.77;;;;;;;;;;5083631;28;20094;-74
2021/05/07 01:35:49;;;;;;;3.30;1.80;;;;;;;;;;5091958;28;20016;-74
2021/05/07 01:38:15;;;;;;;2.67;1.90;;;;;;;;;;5075515;28;20480;-74
2021/05/07 01:40:43;;;;;;;2.75;1.77;;;;;;;;;;5071095;28;20067;-74
2021/05/07 01:43:10;;;;;;;3.50;2.05;;;;;;;;;;5082591;28;20510;-75
2021/05/07 01:45:37;;;;;;;3.22;1.90;;;;;;;;;;5091170;28;20072;-74
2021/05/07 01:48:03;;;;;;;5.90;2.10;;;;;;;;;;5080881;28;20055;-74
2021/05/07 01:50:30;;;;;;;5.13;1.95;;;;;;;;;;5071265;28;20028;-75
2021/05/07 01:52:56;;;;;;;;;;;;;;;;;;5081010;28;20036;-74
2021/05/07 01:55:23;;;;;;;8.32;1.95;;;;;;;;;;5086186;28;20247;-74
2021/05/07 01:57:50;;;;;;;5.45;2.20;;;;;;;;;;5089965;28;20024;-75
2021/05/07 02:00:20;;;;;;;3.20;2.03;;;;;;;;;;5091272;28;20063;-74
2021/05/07 02:02:46;;;;;;;3.58;1.80;;;;;;;;;;5089681;28;20040;-75
2021/05/07 02:05:13;;;;;;;6.30;1.95;;;;;;;;;;5084982;28;20219;-74
2021/05/07 02:07:39;;;;;;;3.33;1.80;;;;;;;;;;5076829;28;20028;-75
2021/05/07 02:10:07;;;;;;;6.53;2.63;;;;;;;;;;5089817;28;20032;-75
2021/05/07 02:12:33;;;;;;;4.95;2.05;;;;;;;;;;5091539;28;20031;-75
2021/05/07 02:14:59;;;;;;;4.85;2.00;;;;;;;;;;5088836;28;20327;-75
2021/05/07 02:17:25;;;;;;;4.57;2.03;;;;;;;;;;5077561;28;20019;-75
2021/05/07 02:19:51;;;;;;;3.17;1.77;;;;;;;;;;5081176;28;20036;-74
2021/05/07 02:22:17;;;;;;;7.20;2.20;;;;;;;;;;5073523;28;20032;-75
2021/05/07 02:24:43;;;;;;;5.47;2.45;;;;;;;;;;5090496;28;20036;-76
2021/05/07 02:27:09;;;;;;;5.28;2.20;;;;;;;;;;5090769;28;20024;-76
2021/05/07 02:29:35;;;;;;;4.43;1.90;;;;;;;;;;5090768;28;20523;-75
2021/05/07 02:32:01;;;;;;;4.25;1.88;;;;;;;;;;5083999;28;20111;-75
2021/05/07 02:34:27;;;;;;;5.93;1.98;;;;;;;;;;5074767;28;20406;-75
2021/05/07 02:36:53;;;;;;;3.78;2.00;;;;;;;;;;5089243;28;20039;-75
2021/05/07 02:39:19;;;;;;;3.50;1.85;;;;;;;;;;5090684;28;20381;-76
2021/05/07 02:41:45;;;;;;;5.88;1.90;;;;;;;;;;5090574;28;20044;-75
2021/05/07 02:44:11;;;;;;;6.72;1.80;;;;;;;;;;5078764;28;20025;-75
2021/05/07 02:46:38;;;;;;;2.55;1.70;;;;;;;;;;5070441;28;20058;-76
2021/05/07 02:49:05;;;;;;;4.50;1.90;;;;;;;;;;5089039;28;20032;-76
2021/05/07 02:51:32;;;;;;;4.45;1.90;;;;;;;;;;5089358;28;20610;-75
2021/05/07 02:53:58;;;;;;;;;;;;;;;;;;5091094;28;20042;-76
2021/05/07 02:56:24;;;;;;;5.82;1.95;;;;;;;;;;5076873;28;19941;-75
2021/05/07 02:58:50;;;;;;;3.53;1.70;;;;;;;;;;5073208;28;20119;-75
2021/05/07 03:01:16;;;;;;;3.90;2.28;;;;;;;;;;5077256;28;20074;-76
2021/05/07 03:03:42;;;;;;;2.70;1.48;;;;;;;;;;5075892;28;20066;-76
2021/05/07 03:06:08;;;;;;;3.97;1.70;;;;;;;;;;5076419;28;20032;-76
2021/05/07 03:08:34;;;;;;;2.85;2.00;;;;;;;;;;5085895;28;20119;-76
2021/05/07 03:11:00;;;;;;;4.13;1.70;;;;;;;;;;5074477;28;20761;-76
2021/05/07 03:13:26;;;;;;;2.07;1.57;;;;;;;;;;5074731;28;20032;-77
2021/05/07 03:15:52;;;;;;;3.88;1.90;;;;;;;;;;5072837;28;20090;-76
2021/05/07 03:18:19;;;;;;;3.58;1.65;;;;;;;;;;5091230;28;20024;-76
2021/05/07 03:20:45;;;;;;;4.07;1.77;;;;;;;;;;5087858;28;20044;-76
2021/05/07 03:23:12;;;;;;;2.95;1.70;;;;;;;;;;5083457;28;20028;-76
2021/05/07 03:25:38;;;;;;;3.55;1.67;;;;;;;;;;5094466;28;20047;-76
2021/05/07 03:28:05;;;;;;;3.45;1.77;;;;;;;;;;5092789;28;20055;-76
2021/05/07 03:30:34;;;;;;;4.65;1.77;;;;;;;;;;5094348;28;20024;-76
2021/05/07 03:33:02;;;;;;;3.97;1.67;;;;;;;;;;5085132;28;20071;-76
2021/05/07 03:35:28;;;;;;;2.28;1.70;;;;;;;;;;5084605;28;20115;-76
2021/05/07 03:37:54;;;;;;;1.88;1.60;;;;;;;;;;5076749;28;20489;-76
2021/05/07 03:40:20;;;;;;;4.35;1.70;;;;;;;;;;5086911;28;20036;-76
2021/05/07 03:42:46;;;;;;;2.70;1.90;;;;;;;;;;5094018;28;20030;-75
2021/05/07 03:45:16;;;;;;;3.35;1.83;;;;;;;;;;5093070;28;20130;-75
2021/05/07 03:47:43;;;;;;;6.32;1.70;;;;;;;;;;5078401;28;20055;-76
2021/05/07 03:50:09;;;;;;;2.53;1.70;;;;;;;;;;5073493;28;20036;-76
2021/05/07 03:52:36;;;;;;;2.45;1.60;;;;;;;;;;5086469;28;20032;-76
2021/05/07 03:55:03;;;;;;;8.85;1.80;;;;;;;;;;5073627;28;20051;-75
2021/05/07 03:57:28;;;;;;;3.85;1.70;;;;;;;;;;5086126;28;20422;-76
2021/05/07 03:59:54;;;;;;;3.40;1.60;;;;;;;;;;5092514;28;20482;-76
2021/05/07 04:02:20;;;;;;;3.27;1.70;;;;;;;;;;5084007;28;20903;-75
2021/05/07 04:04:47;;;;;;;4.28;1.80;;;;;;;;;;5092776;28;20189;-76
2021/05/07 04:07:14;;;;;;;5.93;1.80;;;;;;;;;;5092936;28;20020;-75
2021/05/07 04:09:45;;;;;;;4.07;2.10;;;;;;;;;;5092646;28;20063;-75
2021/05/07 04:12:23;;;;;;;2.03;1.60;;;;;;;;;;5082506;28;20039;-76
2021/05/07 04:14:49;;;;;;;4.53;2.00;;;;;;;;;;5087969;28;20040;-76
2021/05/07 04:17:15;;;;;;;2.45;1.80;;;;;;;;;;5091412;28;20031;-76
2021/05/07 04:19:41;;;;;;;2.83;2.05;;;;;;;;;;5089953;28;20074;-75
2021/05/07 04:22:07;;;;;;;5.20;1.90;;;;;;;;;;5088760;28;20514;-76
2021/05/07 04:24:33;;;;;;;4.73;1.80;;;;;;;;;;5093078;28;20262;-76
2021/05/07 04:27:00;;;;;;;7.53;1.93;;;;;;;;;;5084184;28;20054;-76
2021/05/07 04:29:26;;;;;;;4.80;1.80;;;;;;;;;;5072674;28;20317;-76
2021/05/07 04:31:53;;;;;;;;;;;;;;;;;;5086629;28;20115;-77
2021/05/07 04:34:19;;;;;;;3.70;1.90;;;;;;;;;;5072864;28;19904;-77
2021/05/07 04:36:45;;;;;;;5.60;1.90;;;;;;;;;;5081572;28;20042;-75
2021/05/07 04:39:11;;;;;;;3.30;1.57;;;;;;;;;;5071354;28;20281;-74
2021/05/07 04:41:37;;;;;;;3.20;1.70;;;;;;;;;;5073742;28;20059;-75
2021/05/07 04:44:03;;;;;;;2.30;1.80;;;;;;;;;;5082329;28;20262;-74
2021/05/07 04:46:29;;;;;;;6.00;1.80;;;;;;;;;;5087888;28;20123;-74
2021/05/07 04:48:55;;;;;;;3.83;2.60;;;;;;;;;;5074441;28;20111;-75
2021/05/07 04:51:21;;;;;;;6.88;2.80;;;;;;;;;;5090626;28;20294;-73
2021/05/07 04:53:47;;;;;;;5.75;3.13;;;;;;;;;;5087593;28;20028;-75
2021/05/07 04:56:14;;;;;;;6.83;3.00;;;;;;;;;;5076800;28;20051;-73
2021/05/07 04:58:40;;;;;;;11.15;3.00;;;;;;;;;;5075814;28;20274;-72
2021/05/07 05:01:06;;;;;;;9.15;3.05;;;;;;;;;;5082381;28;20635;-73
2021/05/07 05:03:31;;;;;;;9.43;3.10;;;;;;;;;;5077330;28;20028;-75
2021/05/07 05:05:57;;;;;;;15.23;3.33;;;;;;;;;;5092603;28;20779;-77
2021/05/07 05:08:24;;;;;;;16.57;3.57;;;;;;;;;;5085635;28;20262;-76
2021/05/07 05:10:59;;;;;;;10.52;3.17;;;;;;;;;;5075731;28;20113;-77
2021/05/07 05:13:26;;;;;;;5.18;2.97;;;;;;;;;;5080186;28;20580;-72
2021/05/07 05:15:52;;;;;;;4.03;2.90;;;;;;;;;;5075752;28;20107;-74
2021/05/07 05:18:44;;;;;;;9.00;2.75;;;;;;;;;;5071952;28;20031;-74
2021/05/07 05:21:10;;;;;;;4.93;2.85;;;;;;;;;;5081047;28;20047;-72
2021/05/07 05:23:38;;;;;;;5.90;2.43;;;;;;;;;;5080254;28;20025;-72
2021/05/07 05:26:04;;;;;;;4.65;2.33;;;;;;;;;;5082473;28;20254;-73
2021/05/07 05:28:30;;;;;;;3.63;2.00;;;;;;;;;;5080458;28;20028;-76
2021/05/07 05:30:56;;;;;;;9.27;2.72;;;;;;;;;;5073790;28;20033;-73
2021/05/07 05:33:22;;;;;;;5.78;2.10;;;;;;;;;;5077859;28;20032;-73
2021/05/07 05:35:49;;;;;;;4.35;2.10;;;;;;;;;;5088880;28;20512;-75
2021/05/07 05:38:15;;;;;;;5.57;2.10;;;;;;;;;;5090199;28;20119;-73
2021/05/07 05:40:44;;;;;;;5.80;2.15;;;;;;;;;;5091460;28;20471;-74
2021/05/07 05:43:10;;;;;;;2.88;1.85;;;;;;;;;;5082943;28;20028;-74
2021/05/07 05:45:36;;;;;;;9.63;2.28;;;;;;;;;;5078609;28;20070;-73
2021/05/07 05:48:03;;;;;;;6.85;2.40;;;;;;;;;;5075082;28;20040;-73
2021/05/07 05:50:29;;;;;;;6.88;2.10;;;;;;;;;;5072344;28;20047;-74
2021/05/07 05:52:55;;;;;;;4.78;2.10;;;;;;;;;;5070567;28;20040;-76
2021/05/07 05:55:21;;;;;;;5.00;2.30;;;;;;;;;;5072272;28;20032;-76
2021/05/07 05:57:48;;;;;;;5.22;2.35;;;;;;;;;;5073318;28;20028;-76
2021/05/07 06:00:14;;;;;;;4.68;2.30;;;;;;;;;;5076161;28;20077;-75
2021/05/07 06:02:40;;;;;;;4.80;2.22;;;;;;;;;;5072007;28;20079;-75
2021/05/07 06:05:07;;;;;;;5.03;2.50;;;;;;;;;;5082816;28;20075;-75
2021/05/07 06:07:33;;;;;;;4.07;2.38;;;;;;;;;;5075460;28;20034;-75
2021/05/07 06:09:59;;;;;;;6.67;2.43;;;;;;;;;;5072545;28;20024;-75
2021/05/07 06:12:25;;;;;;;7.10;2.60;;;;;;;;;;5077245;28;20287;-75
2021/05/07 06:14:51;;;;;;;6.47;2.50;;;;;;;;;;5070927;28;20094;-74
2021/05/07 06:17:17;;;;;;;4.95;2.25;;;;;;;;;;5078008;28;20035;-73
2021/05/07 06:19:43;;;;;;;7.03;2.70;;;;;;;;;;5087526;28;20039;-73
2021/05/07 06:22:09;;;;;;;7.50;3.20;;;;;;;;;;5077860;28;20032;-73
2021/05/07 06:24:35;;;;;;;6.13;3.10;;;;;;;;;;5076272;28;20079;-72
2021/05/07 06:27:01;;;;;;;6.87;3.40;;;;;;;;;;5074945;28;20059;-73
2021/05/07 06:29:27;;;;;;;6.87;4.47;;;;;;;;;;5070648;28;20020;-73
2021/05/07 06:31:53;;;;;;;9.00;4.70;;;;;;;;;;5079830;28;20031;-73
2021/05/07 06:34:19;;;;;;;7.20;4.83;;;;;;;;;;5084196;28;20028;-74
2021/05/07 06:36:45;;;;;;;6.63;4.10;;;;;;;;;;5076873;28;20425;-73
2021/05/07 06:39:11;;;;;;;5.93;3.90;;;;;;;;;;5072704;28;20021;-73
2021/05/07 06:41:37;;;;;;;4.47;3.20;;;;;;;;;;5068799;28;20066;-75
2021/05/07 06:44:04;;;;;;;4.17;2.87;;;;;;;;;;5069968;28;20513;-74
2021/05/07 06:46:30;;;;;;;5.47;3.22;;;;;;;;;;5069042;28;20429;-74
2021/05/07 06:48:56;;;;;;;5.53;3.03;;;;;;;;;;5069126;28;20025;-74
2021/05/07 06:51:22;;;;;;;4.40;2.70;;;;;;;;;;5070551;28;20029;-74
2021/05/07 06:53:48;;;;;;;4.77;2.53;;;;;;;;;;5069735;28;20063;-74
2021/05/07 06:56:19;;;;;;;4.93;2.43;;;;;;;;;;5070444;28;20263;-75
2021/05/07 06:58:45;;;;;;;5.22;2.63;;;;;;;;;;5068867;28;20028;-75
2021/05/07 07:01:11;;;;;;;3.50;2.17;;;;;;;;;;5079300;28;20074;-75
2021/05/07 07:03:37;;;;;;;5.82;2.50;;;;;;;;;;5090410;28;20255;-76
2021/05/07 07:06:04;;;;;;;3.63;2.30;;;;;;;;;;5089987;28;20051;-73
2021/05/07 07:08:30;;;;;;;6.18;2.22;;;;;;;;;;5090687;28;20470;-75
2021/05/07 07:10:58;;;;;;;4.80;2.20;;;;;;;;;;5090522;28;20028;-75
2021/05/07 07:13:24;;;;;;;4.03;2.42;;;;;;;;;;5089026;28;20024;-75
2021/05/07 07:15:50;;;;;;;4.73;2.40;;;;;;;;;;5081421;28;20450;-74
2021/05/07 07:18:19;;;;;;;3.95;2.40;;;;;;;;;;5069883;28;20261;-74
2021/05/07 07:20:46;;;;;;;4.00;2.45;;;;;;;;;;5069929;28;20052;-74
2021/05/07 07:23:12;;;;;;;3.20;2.17;;;;;;;;;;5070309;28;20533;-74
2021/05/07 07:25:38;;;;;;;4.20;2.60;;;;;;;;;;5069375;28;20064;-75
2021/05/07 07:28:04;;;;;;;3.63;2.13;;;;;;;;;;5069920;28;20596;-74
2021/05/07 07:30:30;;;;;;;4.40;2.58;;;;;;;;;;5083759;28;20051;-75
2021/05/07 07:32:56;;;;;;;7.73;2.50;;;;;;;;;;5090262;28;20024;-73
2021/05/07 07:35:22;;;;;;;3.33;2.40;;;;;;;;;;5089374;28;20597;-74
2021/05/07 07:37:48;;;;;;;5.00;2.63;;;;;;;;;;5086212;28;20040;-74
2021/05/07 07:40:15;;;;;;;7.50;3.47;;;;;;;;;;5070248;28;20281;-74
2021/05/07 07:42:41;;;;;;;5.20;3.22;;;;;;;;;;5069813;28;20729;-73
2021/05/07 07:45:07;;;;;;;5.97;2.72;;;;;;;;;;5071718;28;20071;-74
2021/05/07 07:47:33;;;;;;;8.35;4.53;;;;;;;;;;5073624;28;20108;-74
2021/05/07 07:49:59;;;;;;;5.60;2.80;;;;;;;;;;5073634;28;20439;-74
2021/05/07 07:52:25;;;;;;;4.00;2.50;;;;;;;;;;5076437;28;20024;-74
2021/05/07 07:54:51;;;;;;;3.22;2.35;;;;;;;;;;5093180;28;20020;-75
2021/05/07 07:57:17;;;;;;;5.63;2.17;;;;;;;;;;5093487;28;20087;-74
2021/05/07 07:59:43;;;;;;;5.10;3.30;;;;;;;;;;5093360;28;20073;-74
2021/05/07 08:02:09;;;;;;;4.00;2.20;;;;;;;;;;5093710;28;20036;-75
2021/05/07 08:04:35;;;;;;;4.80;2.70;;;;;;;;;;5093390;28;20631;-74
2021/05/07 08:07:01;;;;;;;6.60;3.60;;;;;;;;;;5085092;28;20055;-74
2021/05/07 08:09:27;;;;;;;8.40;3.10;;;;;;;;;;5073077;28;20016;-74
2021/05/07 08:11:53;;;;;;;8.00;3.13;;;;;;;;;;5073127;28;20123;-74
2021/05/07 08:14:20;;;;;;;7.53;3.10;;;;;;;;;;5082250;28;20127;-74
2021/05/07 08:16:46;;;;;;;8.27;3.60;;;;;;;;;;5081513;28;20287;-74
2021/05/07 08:19:12;;;;;;;6.20;3.47;;;;;;;;;;5077900;28;20016;-75
2021/05/07 08:21:40;;;;;;;5.97;2.70;;;;;;;;;;5092593;28;20040;-74
2021/05/07 08:24:06;;;;;;;6.90;2.95;;;;;;;;;;5073192;28;20040;-74
2021/05/07 08:26:32;;;;;;;6.05;2.78;;;;;;;;;;5088273;28;20416;-74
2021/05/07 08:28:58;;;;;;;8.40;3.70;;;;;;;;;;5081784;28;20047;-75
2021/05/07 08:31:24;;;;;;;6.90;3.30;;;;;;;;;;5073545;28;20036;-74
2021/05/07 08:33:50;;;;;;;6.53;3.00;;;;;;;;;;5074034;28;20047;-74
2021/05/07 08:36:16;;;;;;;5.07;2.70;;;;;;;;;;5078059;28;20024;-74
2021/05/07 08:38:42;;;;;;;8.33;3.27;;;;;;;;;;5079260;28;20094;-73
2021/05/07 08:41:08;;;;;;;5.40;2.80;;;;;;;;;;5082936;28;20043;-74
2021/05/07 08:43:34;;;;;;;9.33;2.90;;;;;;;;;;5088421;28;20395;-73
2021/05/07 08:46:04;;;;;;;8.83;2.87;;;;;;;;;;5074062;28;20054;-75
2021/05/07 08:48:30;;;;;;;8.93;3.20;;;;;;;;;;5096908;27;20702;-74
2021/05/07 08:50:56;;;;;;;9.00;3.40;;;;;;;;;;5094118;28;20409;-73
2021/05/07 08:53:22;;;;;;;7.53;2.53;;;;;;;;;;5084224;28;20466;-74
2021/05/07 08:55:48;;;;;;;7.17;2.77;;;;;;;;;;5091702;28;20304;-73
2021/05/07 08:58:16;;;;;;;9.37;2.90;;;;;;;;;;5089178;28;20512;-74
2021/05/07 09:00:43;;;;;;;7.82;3.38;;;;;;;;;;5073635;28;20405;-74
2021/05/07 09:03:10;;;;;;;8.65;3.40;;;;;;;;;;5073636;28;20032;-74
2021/05/07 09:05:37;;;;;;;9.50;3.15;;;;;;;;;;5085804;28;20024;-73
2021/05/07 09:08:03;;;;;;;8.30;3.03;;;;;;;;;;5091344;28;20816;-73
2021/05/07 09:10:47;;;;;;;9.02;3.10;;;;;;;;;;5092739;28;20026;-75
2021/05/07 09:13:20;;;;;;;7.75;2.80;;;;;;;;;;5089535;28;20046;-75
2021/05/07 09:15:46;;;;;;;8.00;3.35;;;;;;;;;;5071676;28;20055;-74
2021/05/07 09:18:12;;;;;;;;;;;;;;;;;;5071811;28;20033;-75
2021/05/07 09:20:39;;;;;;;7.75;3.17;;;;;;;;;;5071180;28;19923;-75
2021/05/07 09:23:10;;;;;;;8.07;3.20;;;;;;;;;;5071891;28;20047;-74
2021/05/07 09:25:36;;;;;;;5.75;2.88;;;;;;;;;;5071650;28;20020;-75
2021/05/07 09:28:10;;;;;;;5.83;2.73;;;;;;;;;;5083767;28;20090;-73
2021/05/07 09:30:36;;;;;;;8.05;2.90;;;;;;;;;;5071398;28;20291;-74
2021/05/07 09:33:06;;;;;;;4.90;2.60;;;;;;;;;;5071468;28;20025;-73
2021/05/07 09:35:32;;;;;;;6.85;2.60;;;;;;;;;;5091903;28;20042;-75
2021/05/07 09:37:59;;;;;;;8.10;3.03;;;;;;;;;;5092446;28;20036;-72
2021/05/07 09:40:25;;;;;;;7.80;2.80;;;;;;;;;;5091066;28;20477;-73
2021/05/07 09:43:02;;;;;;;7.63;2.80;;;;;;;;;;5091816;28;20090;-73
2021/05/07 09:45:28;;;;;;;;;;;;;;;;;;5084958;28;20036;-74
2021/05/07 09:47:54;;;;;;;5.55;2.75;;;;;;;;;;5070862;28;19912;-74
2021/05/07 09:50:20;;;;;;;;;;;;;;;;;;5080058;28;20090;-74
2021/05/07 09:52:51;;;;;;;5.40;2.60;;;;;;;;;;5110673;28;20023;-73
2021/05/07 09:55:18;;;;;;;6.13;2.42;;;;;;;;;;5074666;28;20016;-74
2021/05/07 09:57:44;;;;;;;7.97;2.50;;;;;;;;;;5075280;28;20057;-73
2021/05/07 10:00:11;;;;;;;7.63;2.70;;;;;;;;;;5074641;28;20048;-72
2021/05/07 10:02:37;;;;;;;8.05;2.80;;;;;;;;;;5069758;28;20028;-73
2021/05/07 10:05:03;;;;;;;8.23;2.63;;;;;;;;;;5070064;28;20016;-73
2021/05/07 10:07:30;;;;;;;5.40;2.72;;;;;;;;;;5070153;28;20042;-72
2021/05/07 10:10:22;;;;;;;6.72;2.67;;;;;;;;;;5070491;28;20467;-74
2021/05/07 10:12:53;;;;;;;7.32;2.67;;;;;;;;;;5064938;28;20044;-73
2021/05/07 10:15:26;;;;;;;10.02;2.72;;;;;;;;;;5070532;28;20021;-74
2021/05/07 10:17:52;;;;;;;7.47;2.60;;;;;;;;;;5070286;28;20135;-73
2021/05/07 10:20:22;;;;;;;10.20;2.70;;;;;;;;;;5072952;28;20473;-74
2021/05/07 10:22:48;;;;;;;5.05;2.20;;;;;;;;;;5071952;28;20337;-75
2021/05/07 10:25:15;;;;;;;8.27;2.60;;;;;;;;;;5090889;28;20060;-74
2021/05/07 10:27:45;;;;;;;9.38;2.60;;;;;;;;;;5089347;28;20829;-75
2021/05/07 10:30:21;;;;;;;10.35;3.00;;;;;;;;;;5071982;28;20021;-76
2021/05/07 10:32:55;;;;;;;5.72;2.58;;;;;;;;;;5071483;28;20032;-75
2021/05/07 10:35:29;;;;;;;6.53;2.80;;;;;;;;;;5075385;28;20063;-74
2021/05/07 10:37:55;;;;;;;6.07;2.47;;;;;;;;;;5077830;28;20059;-80
2021/05/07 10:40:24;;;;;;;8.83;2.80;;;;;;;;;;5083811;28;20024;-76
2021/05/07 10:43:00;;;;;;;8.88;2.63;;;;;;;;;;5090605;28;20040;-79
2021/05/07 10:45:38;;;;;;;3.25;2.35;;;;;;;;;;5089267;28;20463;-78
2021/05/07 10:48:17;;;;;;;6.35;2.80;;;;;;;;;;5070068;28;20078;-77
2021/05/07 10:50:44;;;;;;;8.60;2.47;;;;;;;;;;5071772;28;20426;-77
2021/05/07 10:53:10;;;;;;;;;;;;;;;;;;5070108;28;20049;-73
2021/05/07 10:55:36;;;;;;;7.55;2.20;;;;;;;;;;5101083;28;20380;-74
2021/05/07 10:58:04;;;;;;;7.30;2.40;;;;;;;;;;5090440;28;20043;-74
2021/05/07 11:00:39;;;;;;;7.50;2.20;;;;;;;;;;5098277;28;20054;-73
2021/05/07 11:03:06;;;;;;;4.65;2.20;;;;;;;;;;5110365;28;20114;-77
2021/05/07 11:05:45;;;;;;;3.67;1.95;;;;;;;;;;5110060;28;20020;-74
2021/05/07 11:08:12;;;;;;;6.63;2.30;;;;;;;;;;5070312;28;20584;-75
2021/05/07 11:10:38;;;;;;;4.55;2.08;;;;;;;;;;5076007;28;20012;-76
2021/05/07 11:13:05;;;;;;;4.03;2.28;;;;;;;;;;5077919;28;20041;-75
2021/05/07 11:15:31;;;;;;;4.72;1.90;;;;;;;;;;5082284;28;20048;-75
2021/05/07 11:18:01;;;;;;;3.35;1.73;;;;;;;;;;5068797;28;20029;-75
2021/05/07 11:20:37;;;;;;;3.10;2.00;;;;;;;;;;5083318;28;20028;-76
2021/05/07 11:23:04;;;;;;;4.28;2.00;;;;;;;;;;5093795;28;20117;-76
2021/05/07 11:25:31;;;;;;;6.85;2.53;;;;;;;;;;5094302;28;20025;-75
2021/05/07 11:27:59;;;;;;;;;;;;;;;;;;5106606;28;20042;-77
2021/05/07 11:30:25;;;;;;;2.33;1.73;;;;;;;;;;5085834;28;19908;-76
2021/05/07 11:32:51;;;;;;;2.63;1.80;;;;;;;;;;5082461;28;20394;-77
2021/05/07 11:35:18;;;;;;;5.17;1.80;;;;;;;;;;5080438;28;20015;-76
2021/05/07 11:37:45;;;;;;;3.63;1.95;;;;;;;;;;5080706;28;20032;-76
2021/05/07 11:40:12;;;;;;;6.97;1.53;;;;;;;;;;5094124;28;20466;-77
2021/05/07 11:42:45;;;;;;;4.13;1.40;;;;;;;;;;5087834;28;20032;-76
2021/05/07 11:45:17;;;;;;;2.70;1.45;;;;;;;;;;5088603;28;20035;-78
2021/05/07 11:47:43;;;;;;;1.65;1.40;;;;;;;;;;5093619;28;20066;-76
2021/05/07 11:50:09;;;;;;;2.03;1.60;;;;;;;;;;5088466;28;20462;-78
2021/05/07 11:52:42;;;;;;;3.28;1.55;;;;;;;;;;5082319;28;20024;-75
2021/05/07 11:55:09;;;;;;;1.77;1.52;;;;;;;;;;5093502;28;20398;-76
2021/05/07 11:57:35;;;;;;;2.20;1.33;;;;;;;;;;5088344;28;20041;-76
2021/05/07 12:00:01;;;;;;;3.05;1.70;;;;;;;;;;5080634;28;20558;-75
2021/05/07 12:02:28;;;;;;;2.53;1.60;;;;;;;;;;5083074;28;20054;-76
2021/05/07 12:04:55;;;;;;;2.35;1.52;;;;;;;;;;5090735;28;20111;-75
2021/05/07 12:07:26;;;;;;;3.33;1.90;;;;;;;;;;5073418;28;20530;-75
2021/05/07 12:09:52;;;;;;;3.15;1.65;;;;;;;;;;5080676;28;20535;-78
2021/05/07 12:12:18;;;;;;;2.85;1.58;;;;;;;;;;5093703;28;20070;-78
2021/05/07 12:14:51;;;;;;;2.78;1.52;;;;;;;;;;5086514;28;20040;-79
2021/05/07 12:17:24;;;;;;;3.28;1.55;;;;;;;;;;5088743;28;20486;-79
2021/05/07 12:20:02;;;;;;;4.05;1.80;;;;;;;;;;5090766;28;20024;-77
2021/05/07 12:22:28;;;;;;;2.40;1.75;;;;;;;;;;5091646;28;20032;-77
2021/05/07 12:24:54;;;;;;;1.90;1.50;;;;;;;;;;5093300;28;20047;-77
2021/05/07 12:27:27;;;;;;;2.97;1.47;;;;;;;;;;5091129;28;20024;-77
2021/05/07 12:29:53;;;;;;;2.65;1.60;;;;;;;;;;5092165;28;20262;-77
2021/05/07 12:32:23;;;;;;;2.30;1.60;;;;;;;;;;5088121;28;20107;-77
2021/05/07 12:34:56;;;;;;;3.50;1.50;;;;;;;;;;5090919;28;20433;-77
2021/05/07 12:37:22;;;;;;;3.17;1.90;;;;;;;;;;5092744;28;20462;-77
2021/05/07 12:39:48;;;;;;;4.73;1.70;;;;;;;;;;5092745;28;20031;-77
2021/05/07 12:42:14;;;;;;;5.80;1.70;;;;;;;;;;5084083;28;20119;-78
2021/05/07 12:44:40;;;;;;;4.13;1.60;;;;;;;;;;5092167;28;20120;-76
2021/05/07 12:47:06;;;;;;;3.58;2.00;;;;;;;;;;5081504;28;20055;-77
2021/05/07 12:49:32;;;;;;;3.67;1.92;;;;;;;;;;5088288;28;20032;-78
2021/05/07 12:52:01;;;;;;;2.92;1.83;;;;;;;;;;5079687;28;20044;-75
2021/05/07 12:54:27;;;;;;;5.38;1.80;;;;;;;;;;5072602;28;20024;-77
2021/05/07 12:56:53;;;;;;;2.47;1.52;;;;;;;;;;5081622;28;20071;-78
2021/05/07 12:59:19;;;;;;;5.13;1.80;;;;;;;;;;5088585;28;20377;-77
2021/05/07 13:01:47;;;;;;;4.57;1.80;;;;;;;;;;5077651;28;20347;-74
2021/05/07 13:04:13;;;;;;;3.75;1.85;;;;;;;;;;5080281;28;20020;-76
2021/05/07 13:06:39;;;;;;;4.33;2.00;;;;;;;;;;5090951;28;20044;-79
2021/05/07 13:09:05;;;;;;;3.67;1.53;;;;;;;;;;5091633;28;20486;-80
2021/05/07 13:11:31;;;;;;;2.73;1.87;;;;;;;;;;5101256;28;20057;-79
2021/05/07 13:13:57;;;;;;;3.17;1.73;;;;;;;;;;5112699;28;20269;-78
2021/05/07 13:16:23;;;;;;;4.47;1.80;;;;;;;;;;5098896;28;20024;-79
2021/05/07 13:18:49;;;;;;;2.10;1.53;;;;;;;;;;5092112;28;20359;-77
2021/05/07 13:21:15;;;;;;;2.93;1.60;;;;;;;;;;5092151;28;20503;-76
2021/05/07 13:23:41;;;;;;;1.80;1.50;;;;;;;;;;5103700;28;20020;-77
2021/05/07 13:26:07;;;;;;;4.97;1.80;;;;;;;;;;5086666;28;20107;-81
2021/05/07 13:28:33;;;;;;;1.40;1.30;;;;;;;;;;5081967;28;20039;-80
2021/05/07 13:30:59;;;;;;;4.77;1.57;;;;;;;;;;5079980;28;20047;-79
2021/05/07 13:33:27;;;;;;;1.83;1.40;;;;;;;;;;5082325;28;20028;-80
2021/05/07 13:35:54;;;;;;;1.60;1.45;;;;;;;;;;5074497;28;20112;-79
2021/05/07 13:38:20;;;;;;;5.68;1.45;;;;;;;;;;5077373;28;20058;-79
2021/05/07 13:40:49;;;;;;;2.15;1.40;;;;;;;;;;5079705;28;20535;-76
2021/05/07 13:43:15;;;;;;;1.77;1.15;;;;;;;;;;5080994;28;20036;-77
2021/05/07 13:45:41;;;;;;;2.30;1.30;;;;;;;;;;5082172;28;20044;-79
2021/05/07 13:48:07;;;;;;;3.50;1.60;;;;;;;;;;5071081;28;20348;-77
2021/05/07 13:50:33;;;;;;;3.37;1.50;;;;;;;;;;5097743;28;20135;-79
2021/05/07 13:52:59;;;;;;;1.43;1.33;;;;;;;;;;5111222;28;20134;-77
2021/05/07 13:55:25;;;;;;;1.30;1.20;;;;;;;;;;5111874;28;20465;-76
2021/05/07 13:57:51;;;;;;;3.87;1.33;;;;;;;;;;5098419;28;20094;-77
2021/05/07 14:00:17;;;;;;;4.30;1.40;;;;;;;;;;5079273;28;20036;-79
2021/05/07 14:02:43;;;;;;;1.50;1.40;;;;;;;;;;5081427;28;20036;-70
2021/05/07 14:05:10;;;;;;;2.23;1.20;;;;;;;;;;5071836;28;20025;-70
2021/05/07 14:07:36;;;;;;;2.03;1.33;;;;;;;;;;5069829;28;20390;-70
2021/05/07 14:10:06;;;;;;;1.47;1.37;;;;;;;;;;5070441;28;20029;-70
2021/05/07 14:12:32;;;;;;;1.30;1.20;;;;;;;;;;5070557;28;20398;-70
2021/05/07 14:14:58;;;;;;;8.80;1.40;;;;;;;;;;5070605;28;20021;-70
2021/05/07 14:17:24;;;;;;;1.43;1.13;;;;;;;;;;5070798;28;20301;-70
2021/05/07 14:19:50;;;;;;;1.47;1.30;;;;;;;;;;5074382;28;20310;-69
2021/05/07 14:22:16;;;;;;;2.37;1.27;;;;;;;;;;5089120;28;20033;-70
2021/05/07 14:24:42;;;;;;;1.40;1.30;;;;;;;;;;5089611;28;20043;-70
2021/05/07 14:27:09;;;;;;;1.63;1.20;;;;;;;;;;5081375;28;20397;-71
2021/05/07 14:29:35;;;;;;;1.20;1.10;;;;;;;;;;5081995;28;20060;-72
2021/05/07 14:32:01;;;;;;;5.17;1.57;;;;;;;;;;5082423;28;20806;-71
2021/05/07 14:34:27;;;;;;;0.87;0.87;;;;;;;;;;5091222;28;20085;-73
2021/05/07 14:36:53;;;;;;;0.75;0.75;;;;;;;;;;5089978;28;20024;-71
2021/05/07 14:39:19;;;;;;;1.50;1.00;;;;;;;;;;5077542;28;20029;-72
2021/05/07 14:41:45;;;;;;;0.95;0.65;;;;;;;;;;5089713;28;20040;-71
2021/05/07 14:44:11;;;;;;;7.10;1.20;;;;;;;;;;5089169;28;20055;-72